sensor_id;sensor_type;location;lat;lon;timestamp;pressure;altitude;pressure_sealevel;temperature;humidity
38197;BME280;26543;51.976;4.616;2023-04-25T00:01:53;53066.63;;;-140.72;100.00
38197;BME280;26543;51.976;4.616;2023-04-25T00:04:18;53113.28;;;-140.72;100.00
38197;BME280;26543;51.976;4.616;2023-04-25T00:06:43;53066.63;;;-140.72;100.00
38197;BME280;26543;51.976;4.616;2023-04-25T00:09:08;53058.50;;;-140.72;100.00
38197;BME280;26543;51.976;4.616;2023-04-25T00:11:36;53064.59;;;-140.72;100.00
38197;BME280;26543;51.976;4.616;2023-04-25T00:14:02;53080.81;;;-140.72;100.00
38197;BME280;26543;51.976;4.616;2023-04-25T00:16:28;53125.47;;;-140.72;100.00
38197;BME280;26543;51.976;4.616;2023-04-25T00:18:54;53048.34;;;-140.72;100.00
38197;BME280;26543;51.976;4.616;2023-04-25T00:21:19;53097.06;;;-140.72;100.00
38197;BME280;26543;51.976;4.616;2023-04-25T00:23:45;53113.28;;;-140.72;100.00
38197;BME280;26543;51.976;4.616;2023-04-25T00:26:11;53084.88;;;-140.72;100.00
38197;BME280;26543;51.976;4.616;2023-04-25T00:28:36;53084.88;;;-140.72;100.00
38197;BME280;26543;51.976;4.616;2023-04-25T00:31:02;53097.06;;;-140.72;100.00
38197;BME280;26543;51.976;4.616;2023-04-25T00:33:27;53070.69;;;-140.72;100.00
38197;BME280;26543;51.976;4.616;2023-04-25T00:35:55;53109.22;;;-140.72;100.00
38197;BME280;26543;51.976;4.616;2023-04-25T00:38:20;53111.25;;;-140.72;100.00
38197;BME280;26543;51.976;4.616;2023-04-25T00:40:45;53082.84;;;-140.72;100.00
38197;BME280;26543;51.976;4.616;2023-04-25T00:43:11;53040.22;;;-140.72;100.00
38197;BME280;26543;51.976;4.616;2023-04-25T00:45:37;53125.47;;;-140.72;100.00
38197;BME280;26543;51.976;4.616;2023-04-25T00:48:07;53082.84;;;-140.72;100.00
38197;BME280;26543;51.976;4.616;2023-04-25T00:50:33;53086.91;;;-140.72;100.00
38197;BME280;26543;51.976;4.616;2023-04-25T00:52:59;53093.00;;;-140.72;100.00
38197;BME280;26543;51.976;4.616;2023-04-25T00:55:24;53111.25;;;-140.72;100.00
38197;BME280;26543;51.976;4.616;2023-04-25T00:57:49;53090.97;;;-140.72;100.00
38197;BME280;26543;51.976;4.616;2023-04-25T01:00:15;53068.66;;;-140.72;100.00
38197;BME280;26543;51.976;4.616;2023-04-25T01:02:40;53127.50;;;-140.72;100.00
38197;BME280;26543;51.976;4.616;2023-04-25T01:05:07;53125.47;;;-140.72;100.00
38197;BME280;26543;51.976;4.616;2023-04-25T01:07:32;53068.66;;;-140.72;100.00
38197;BME280;26543;51.976;4.616;2023-04-25T01:09:58;53117.34;;;-140.72;100.00
38197;BME280;26543;51.976;4.616;2023-04-25T01:12:23;53080.81;;;-140.72;100.00
38197;BME280;26543;51.976;4.616;2023-04-25T01:14:49;53068.66;;;-140.72;100.00
38197;BME280;26543;51.976;4.616;2023-04-25T01:17:14;53076.75;;;-140.72;100.00
38197;BME280;26543;51.976;4.616;2023-04-25T01:19:40;53050.38;;;-140.72;100.00
38197;BME280;26543;51.976;4.616;2023-04-25T01:22:05;53084.88;;;-140.72;100.00
38197;BME280;26543;51.976;4.616;2023-04-25T01:24:33;53129.53;;;-140.72;100.00
38197;BME280;26543;51.976;4.616;2023-04-25T01:27:05;53078.78;;;-140.72;100.00
38197;BME280;26543;51.976;4.616;2023-04-25T01:29:31;53080.81;;;-140.72;100.00
38197;BME280;26543;51.976;4.616;2023-04-25T01:31:57;53135.63;;;-140.72;100.00
38197;BME280;26543;51.976;4.616;2023-04-25T01:34:23;53109.22;;;-140.72;100.00
38197;BME280;26543;51.976;4.616;2023-04-25T01:36:49;53111.25;;;-140.72;100.00
38197;BME280;26543;51.976;4.616;2023-04-25T01:39:15;53135.63;;;-140.72;100.00
38197;BME280;26543;51.976;4.616;2023-04-25T01:41:40;53107.19;;;-140.72;100.00
38197;BME280;26543;51.976;4.616;2023-04-25T01:44:05;53090.97;;;-140.72;100.00
38197;BME280;26543;51.976;4.616;2023-04-25T01:46:31;53103.16;;;-140.72;100.00
38197;BME280;26543;51.976;4.616;2023-04-25T01:49:04;53084.88;;;-140.72;100.00
38197;BME280;26543;51.976;4.616;2023-04-25T01:51:30;53103.16;;;-140.72;100.00
38197;BME280;26543;51.976;4.616;2023-04-25T01:54:00;53086.91;;;-140.72;100.00
38197;BME280;26543;51.976;4.616;2023-04-25T01:56:25;53111.25;;;-140.72;100.00
38197;BME280;26543;51.976;4.616;2023-04-25T01:58:54;53141.69;;;-140.72;100.00
38197;BME280;26543;51.976;4.616;2023-04-25T02:01:19;53056.47;;;-140.72;100.00
38197;BME280;26543;51.976;4.616;2023-04-25T02:03:45;53086.91;;;-140.72;100.00
38197;BME280;26543;51.976;4.616;2023-04-25T02:08:45;53111.25;;;-140.72;100.00
38197;BME280;26543;51.976;4.616;2023-04-25T02:11:10;53123.44;;;-140.72;100.00
38197;BME280;26543;51.976;4.616;2023-04-25T02:13:35;53105.19;;;-140.72;100.00
38197;BME280;26543;51.976;4.616;2023-04-25T02:16:03;53042.25;;;-140.72;100.00
38197;BME280;26543;51.976;4.616;2023-04-25T02:18:28;53060.53;;;-140.72;100.00
38197;BME280;26543;51.976;4.616;2023-04-25T02:20:53;53080.81;;;-140.72;100.00
38197;BME280;26543;51.976;4.616;2023-04-25T02:23:19;53078.78;;;-140.72;100.00
38197;BME280;26543;51.976;4.616;2023-04-25T02:25:44;53084.88;;;-140.72;100.00
38197;BME280;26543;51.976;4.616;2023-04-25T02:28:09;53054.44;;;-140.72;100.00
38197;BME280;26543;51.976;4.616;2023-04-25T02:30:35;53086.91;;;-140.72;100.00
38197;BME280;26543;51.976;4.616;2023-04-25T02:33:00;53068.66;;;-140.72;100.00
38197;BME280;26543;51.976;4.616;2023-04-25T02:35:27;53068.66;;;-140.72;100.00
38197;BME280;26543;51.976;4.616;2023-04-25T02:37:52;53117.34;;;-140.72;100.00
38197;BME280;26543;51.976;4.616;2023-04-25T02:43:05;53107.19;;;-140.72;100.00
38197;BME280;26543;51.976;4.616;2023-04-25T02:45:30;53056.47;;;-140.72;100.00
38197;BME280;26543;51.976;4.616;2023-04-25T02:47:56;53080.81;;;-140.72;100.00
38197;BME280;26543;51.976;4.616;2023-04-25T02:50:21;53111.25;;;-140.72;100.00
38197;BME280;26543;51.976;4.616;2023-04-25T02:52:46;53086.91;;;-140.72;100.00
38197;BME280;26543;51.976;4.616;2023-04-25T02:55:12;53074.72;;;-140.72;100.00
38197;BME280;26543;51.976;4.616;2023-04-25T02:57:37;53121.41;;;-140.72;100.00
38197;BME280;26543;51.976;4.616;2023-04-25T03:00:02;53072.69;;;-140.72;100.00
38197;BME280;26543;51.976;4.616;2023-04-25T03:02:29;53068.66;;;-140.72;100.00
38197;BME280;26543;51.976;4.616;2023-04-25T03:04:55;53060.53;;;-140.72;100.00
38197;BME280;26543;51.976;4.616;2023-04-25T03:07:20;53056.47;;;-140.72;100.00
38197;BME280;26543;51.976;4.616;2023-04-25T03:09:45;53068.66;;;-140.72;100.00
38197;BME280;26543;51.976;4.616;2023-04-25T03:12:10;53099.09;;;-140.72;100.00
38197;BME280;26543;51.976;4.616;2023-04-25T03:14:36;53060.53;;;-140.72;100.00
38197;BME280;26543;51.976;4.616;2023-04-25T03:17:01;53050.38;;;-140.72;100.00
38197;BME280;26543;51.976;4.616;2023-04-25T03:19:26;53125.47;;;-140.72;100.00
38197;BME280;26543;51.976;4.616;2023-04-25T03:21:51;53062.56;;;-140.72;100.00
38197;BME280;26543;51.976;4.616;2023-04-25T03:24:17;53072.69;;;-140.72;100.00
38197;BME280;26543;51.976;4.616;2023-04-25T03:26:42;53113.28;;;-140.72;100.00
38197;BME280;26543;51.976;4.616;2023-04-25T03:29:07;53139.69;;;-140.72;100.00
38197;BME280;26543;51.976;4.616;2023-04-25T03:31:32;53084.88;;;-140.72;100.00
38197;BME280;26543;51.976;4.616;2023-04-25T03:33:57;53097.06;;;-140.72;100.00
38197;BME280;26543;51.976;4.616;2023-04-25T03:36:23;53060.53;;;-140.72;100.00
38197;BME280;26543;51.976;4.616;2023-04-25T03:38:48;53064.59;;;-140.72;100.00
38197;BME280;26543;51.976;4.616;2023-04-25T03:41:13;53076.75;;;-140.72;100.00
38197;BME280;26543;51.976;4.616;2023-04-25T03:43:38;53080.81;;;-140.72;100.00
38197;BME280;26543;51.976;4.616;2023-04-25T03:46:04;53044.28;;;-140.72;100.00
38197;BME280;26543;51.976;4.616;2023-04-25T03:48:29;53088.94;;;-140.72;100.00
38197;BME280;26543;51.976;4.616;2023-04-25T03:50:54;53113.28;;;-140.72;100.00
38197;BME280;26543;51.976;4.616;2023-04-25T03:53:19;53066.63;;;-140.72;100.00
38197;BME280;26543;51.976;4.616;2023-04-25T03:55:45;53052.41;;;-140.72;100.00
38197;BME280;26543;51.976;4.616;2023-04-25T03:58:10;53058.50;;;-140.72;100.00
38197;BME280;26543;51.976;4.616;2023-04-25T04:00:35;53074.72;;;-140.72;100.00
38197;BME280;26543;51.976;4.616;2023-04-25T04:03:01;53030.09;;;-140.72;100.00
38197;BME280;26543;51.976;4.616;2023-04-25T04:05:26;53070.69;;;-140.72;100.00
38197;BME280;26543;51.976;4.616;2023-04-25T04:07:52;53080.81;;;-140.72;100.00
38197;BME280;26543;51.976;4.616;2023-04-25T04:10:17;53036.16;;;-140.72;100.00
38197;BME280;26543;51.976;4.616;2023-04-25T04:12:42;53062.56;;;-140.72;100.00
38197;BME280;26543;51.976;4.616;2023-04-25T04:15:08;53088.94;;;-140.72;100.00
38197;BME280;26543;51.976;4.616;2023-04-25T04:17:33;53052.41;;;-140.72;100.00
38197;BME280;26543;51.976;4.616;2023-04-25T04:19:59;53064.59;;;-140.72;100.00
38197;BME280;26543;51.976;4.616;2023-04-25T04:22:24;53026.03;;;-140.72;100.00
38197;BME280;26543;51.976;4.616;2023-04-25T04:24:50;53030.09;;;-140.72;100.00
38197;BME280;26543;51.976;4.616;2023-04-25T04:27:18;53068.66;;;-140.72;100.00
38197;BME280;26543;51.976;4.616;2023-04-25T04:29:44;53036.16;;;-140.72;100.00
38197;BME280;26543;51.976;4.616;2023-04-25T04:32:10;53080.81;;;-140.72;100.00
38197;BME280;26543;51.976;4.616;2023-04-25T04:34:36;53068.66;;;-140.72;100.00
38197;BME280;26543;51.976;4.616;2023-04-25T04:37:01;53050.38;;;-140.72;100.00
38197;BME280;26543;51.976;4.616;2023-04-25T04:39:26;53052.41;;;-140.72;100.00
38197;BME280;26543;51.976;4.616;2023-04-25T04:41:51;53090.97;;;-140.72;100.00
38197;BME280;26543;51.976;4.616;2023-04-25T04:44:17;53046.31;;;-140.72;100.00
38197;BME280;26543;51.976;4.616;2023-04-25T04:46:42;53093.00;;;-140.72;100.00
38197;BME280;26543;51.976;4.616;2023-04-25T04:49:09;53050.38;;;-140.72;100.00
38197;BME280;26543;51.976;4.616;2023-04-25T04:51:35;53026.03;;;-140.72;100.00
38197;BME280;26543;51.976;4.616;2023-04-25T04:54:01;53048.34;;;-140.72;100.00
38197;BME280;26543;51.976;4.616;2023-04-25T04:56:28;53080.81;;;-140.72;100.00
38197;BME280;26543;51.976;4.616;2023-04-25T04:58:54;53044.28;;;-140.72;100.00
38197;BME280;26543;51.976;4.616;2023-04-25T05:01:19;53036.16;;;-140.72;100.00
38197;BME280;26543;51.976;4.616;2023-04-25T05:03:44;53072.69;;;-140.72;100.00
38197;BME280;26543;51.976;4.616;2023-04-25T05:06:10;53072.69;;;-140.72;100.00
38197;BME280;26543;51.976;4.616;2023-04-25T05:08:35;53068.66;;;-140.72;100.00
38197;BME280;26543;51.976;4.616;2023-04-25T05:11:01;53050.38;;;-140.72;100.00
38197;BME280;26543;51.976;4.616;2023-04-25T05:13:26;53048.34;;;-140.72;100.00
38197;BME280;26543;51.976;4.616;2023-04-25T05:15:51;53050.38;;;-140.72;100.00
38197;BME280;26543;51.976;4.616;2023-04-25T05:18:16;53030.09;;;-140.72;100.00
38197;BME280;26543;51.976;4.616;2023-04-25T05:20:42;53056.47;;;-140.72;100.00
38197;BME280;26543;51.976;4.616;2023-04-25T05:23:07;53060.53;;;-140.72;100.00
38197;BME280;26543;51.976;4.616;2023-04-25T05:25:32;53028.06;;;-140.72;100.00
38197;BME280;26543;51.976;4.616;2023-04-25T05:27:58;53048.34;;;-140.72;100.00
38197;BME280;26543;51.976;4.616;2023-04-25T05:30:23;53062.56;;;-140.72;100.00
38197;BME280;26543;51.976;4.616;2023-04-25T05:32:48;53040.22;;;-140.72;100.00
38197;BME280;26543;51.976;4.616;2023-04-25T05:35:13;53048.34;;;-140.72;100.00
38197;BME280;26543;51.976;4.616;2023-04-25T05:37:39;53024.00;;;-140.72;100.00
38197;BME280;26543;51.976;4.616;2023-04-25T05:40:04;52999.66;;;-140.72;100.00
38197;BME280;26543;51.976;4.616;2023-04-25T05:42:31;53056.47;;;-140.72;100.00
38197;BME280;26543;51.976;4.616;2023-04-25T05:44:57;53060.53;;;-140.72;100.00
38197;BME280;26543;51.976;4.616;2023-04-25T05:47:22;53001.66;;;-140.72;100.00
38197;BME280;26543;51.976;4.616;2023-04-25T05:49:47;53054.44;;;-140.72;100.00
38197;BME280;26543;51.976;4.616;2023-04-25T05:52:12;53042.25;;;-140.72;100.00
38197;BME280;26543;51.976;4.616;2023-04-25T05:54:38;53009.78;;;-140.72;100.00
38197;BME280;26543;51.976;4.616;2023-04-25T05:57:03;53034.16;;;-140.72;100.00
38197;BME280;26543;51.976;4.616;2023-04-25T05:59:28;53026.03;;;-140.72;100.00
38197;BME280;26543;51.976;4.616;2023-04-25T06:01:53;53052.41;;;-140.72;100.00
38197;BME280;26543;51.976;4.616;2023-04-25T06:04:19;52995.59;;;-140.72;100.00
38197;BME280;26543;51.976;4.616;2023-04-25T06:06:45;53003.69;;;-140.72;100.00
38197;BME280;26543;51.976;4.616;2023-04-25T06:09:10;52987.47;;;-140.72;100.00
38197;BME280;26543;51.976;4.616;2023-04-25T06:11:35;53046.31;;;-140.72;100.00
38197;BME280;26543;51.976;4.616;2023-04-25T06:14:00;52999.66;;;-140.72;100.00
38197;BME280;26543;51.976;4.616;2023-04-25T06:16:26;53015.88;;;-140.72;100.00
38197;BME280;26543;51.976;4.616;2023-04-25T06:18:51;53001.66;;;-140.72;100.00
38197;BME280;26543;51.976;4.616;2023-04-25T06:21:16;52993.56;;;-140.72;100.00
38197;BME280;26543;51.976;4.616;2023-04-25T06:23:41;53054.44;;;-140.72;100.00
38197;BME280;26543;51.976;4.616;2023-04-25T06:26:06;53007.75;;;-140.72;100.00
38197;BME280;26543;51.976;4.616;2023-04-25T06:28:32;53024.00;;;-140.72;100.00
38197;BME280;26543;51.976;4.616;2023-04-25T06:30:57;53052.41;;;-140.72;100.00
38197;BME280;26543;51.976;4.616;2023-04-25T06:33:22;53066.63;;;-140.72;100.00
38197;BME280;26543;51.976;4.616;2023-04-25T06:35:49;53026.03;;;-140.72;100.00
38197;BME280;26543;51.976;4.616;2023-04-25T06:38:14;53048.34;;;-140.72;100.00
38197;BME280;26543;51.976;4.616;2023-04-25T06:40:40;53015.88;;;-140.72;100.00
38197;BME280;26543;51.976;4.616;2023-04-25T06:43:05;53036.16;;;-140.72;100.00
38197;BME280;26543;51.976;4.616;2023-04-25T06:45:30;53017.91;;;-140.72;100.00
38197;BME280;26543;51.976;4.616;2023-04-25T06:47:56;53007.75;;;-140.72;100.00
38197;BME280;26543;51.976;4.616;2023-04-25T06:50:21;53026.03;;;-140.72;100.00
38197;BME280;26543;51.976;4.616;2023-04-25T06:52:46;52995.59;;;-140.72;100.00
38197;BME280;26543;51.976;4.616;2023-04-25T06:55:11;53015.88;;;-140.72;100.00
38197;BME280;26543;51.976;4.616;2023-04-25T06:57:37;52979.34;;;-140.72;100.00
38197;BME280;26543;51.976;4.616;2023-04-25T07:00:02;52999.66;;;-140.72;100.00
38197;BME280;26543;51.976;4.616;2023-04-25T07:02:30;52991.53;;;-140.72;100.00
38197;BME280;26543;51.976;4.616;2023-04-25T07:04:55;52981.38;;;-140.72;100.00
38197;BME280;26543;51.976;4.616;2023-04-25T07:07:24;52959.06;;;-140.72;100.00
38197;BME280;26543;51.976;4.616;2023-04-25T07:09:49;52963.13;;;-140.72;100.00
38197;BME280;26543;51.976;4.616;2023-04-25T07:12:15;52991.53;;;-140.72;100.00
38197;BME280;26543;51.976;4.616;2023-04-25T07:14:40;53005.72;;;-140.72;100.00
38197;BME280;26543;51.976;4.616;2023-04-25T07:17:05;52991.53;;;-140.72;100.00
38197;BME280;26543;51.976;4.616;2023-04-25T07:19:31;53003.69;;;-140.72;100.00
38197;BME280;26543;51.976;4.616;2023-04-25T07:21:57;52991.53;;;-140.72;100.00
38197;BME280;26543;51.976;4.616;2023-04-25T07:24:22;52959.06;;;-140.72;100.00
38197;BME280;26543;51.976;4.616;2023-04-25T07:26:47;53005.72;;;-140.72;100.00
38197;BME280;26543;51.976;4.616;2023-04-25T07:29:12;53028.06;;;-140.72;100.00
38197;BME280;26543;51.976;4.616;2023-04-25T07:31:38;53034.16;;;-140.72;100.00
38197;BME280;26543;51.976;4.616;2023-04-25T07:34:03;52963.13;;;-140.72;100.00
38197;BME280;26543;51.976;4.616;2023-04-25T07:36:28;52989.50;;;-140.72;100.00
38197;BME280;26543;51.976;4.616;2023-04-25T07:38:54;52987.47;;;-140.72;100.00
38197;BME280;26543;51.976;4.616;2023-04-25T07:41:19;52959.06;;;-140.72;100.00
38197;BME280;26543;51.976;4.616;2023-04-25T07:43:44;52981.38;;;-140.72;100.00
38197;BME280;26543;51.976;4.616;2023-04-25T07:46:10;52979.34;;;-140.72;100.00
38197;BME280;26543;51.976;4.616;2023-04-25T07:48:35;52926.59;;;-140.72;100.00
38197;BME280;26543;51.976;4.616;2023-04-25T07:51:00;52936.72;;;-140.72;100.00
38197;BME280;26543;51.976;4.616;2023-04-25T07:53:25;52973.25;;;-140.72;100.00
38197;BME280;26543;51.976;4.616;2023-04-25T07:55:51;52926.59;;;-140.72;100.00
38197;BME280;26543;51.976;4.616;2023-04-25T07:58:16;52938.75;;;-140.72;100.00
38197;BME280;26543;51.976;4.616;2023-04-25T08:00:46;52932.66;;;-140.72;100.00
38197;BME280;26543;51.976;4.616;2023-04-25T08:03:11;52936.72;;;-140.72;98.49
38197;BME280;26543;51.976;4.616;2023-04-25T08:05:37;52940.78;;;-140.72;41.55
38197;BME280;26543;51.976;4.616;2023-04-25T08:08:02;52950.94;;;-140.72;34.02
38197;BME280;26543;51.976;4.616;2023-04-25T08:10:27;52979.34;;;-140.72;21.13
38197;BME280;26543;51.976;4.616;2023-04-25T08:12:53;52926.59;;;-140.72;10.63
38197;BME280;26543;51.976;4.616;2023-04-25T08:15:18;52940.78;;;-140.72;0.02
38197;BME280;26543;51.976;4.616;2023-04-25T08:17:43;52938.75;;;-140.72;4.49
38197;BME280;26543;51.976;4.616;2023-04-25T08:20:09;52946.88;;;-140.72;0.00
38197;BME280;26543;51.976;4.616;2023-04-25T08:22:35;52853.53;;;-140.72;0.00
38197;BME280;26543;51.976;4.616;2023-04-25T08:25:00;52896.16;;;-140.72;0.00
38197;BME280;26543;51.976;4.616;2023-04-25T08:27:25;52894.13;;;-140.72;0.00
38197;BME280;26543;51.976;4.616;2023-04-25T08:29:51;52886.00;;;-140.72;0.00
38197;BME280;26543;51.976;4.616;2023-04-25T08:32:16;52942.81;;;-140.72;0.00
38197;BME280;26543;51.976;4.616;2023-04-25T08:34:41;52918.47;;;-140.72;0.00
38197;BME280;26543;51.976;4.616;2023-04-25T08:37:08;52987.47;;;-140.72;0.00
38197;BME280;26543;51.976;4.616;2023-04-25T08:39:35;52926.59;;;-140.72;0.00
38197;BME280;26543;51.976;4.616;2023-04-25T08:42:00;52938.75;;;-140.72;0.00
38197;BME280;26543;51.976;4.616;2023-04-25T08:44:28;52952.97;;;-140.72;0.00
38197;BME280;26543;51.976;4.616;2023-04-25T08:46:55;52900.19;;;-140.72;0.00
38197;BME280;26543;51.976;4.616;2023-04-25T08:49:20;52863.66;;;-140.72;0.00
38197;BME280;26543;51.976;4.616;2023-04-25T08:51:46;52831.19;;;-140.72;0.00
38197;BME280;26543;51.976;4.616;2023-04-25T08:54:12;52869.75;;;-140.72;0.00
38197;BME280;26543;51.976;4.616;2023-04-25T08:56:38;52886.00;;;-140.72;0.00
38197;BME280;26543;51.976;4.616;2023-04-25T08:59:05;52906.28;;;-140.72;0.00
38197;BME280;26543;51.976;4.616;2023-04-25T09:01:32;52857.59;;;-140.72;0.00
38197;BME280;26543;51.976;4.616;2023-04-25T09:03:58;52800.75;;;-140.72;0.00
38197;BME280;26543;51.976;4.616;2023-04-25T09:06:23;52821.06;;;-140.72;0.00
38197;BME280;26543;51.976;4.616;2023-04-25T09:08:49;52827.16;;;-140.72;0.00
38197;BME280;26543;51.976;4.616;2023-04-25T09:11:15;52721.63;;;-140.72;0.00
38197;BME280;26543;51.976;4.616;2023-04-25T09:13:42;52780.47;;;-140.72;0.00
38197;BME280;26543;51.976;4.616;2023-04-25T09:16:07;52670.88;;;-140.72;0.00
38197;BME280;26543;51.976;4.616;2023-04-25T09:18:33;52636.38;;;-140.72;0.00
38197;BME280;26543;51.976;4.616;2023-04-25T09:21:08;52656.69;;;-140.72;0.00
38197;BME280;26543;51.976;4.616;2023-04-25T09:24:06;52656.69;;;-140.72;0.00
38197;BME280;26543;51.976;4.616;2023-04-25T09:26:24;52610.00;;;-140.72;0.00
38197;BME280;26543;51.976;4.616;2023-04-25T09:28:55;52687.13;;;-140.72;0.00
38197;BME280;26543;51.976;4.616;2023-04-25T09:31:29;52670.88;;;-140.72;0.00
38197;BME280;26543;51.976;4.616;2023-04-25T09:33:58;52668.84;;;-140.72;0.00
38197;BME280;26543;51.976;4.616;2023-04-25T09:36:23;52814.97;;;-140.72;0.00
38197;BME280;26543;51.976;4.616;2023-04-25T09:38:51;52719.59;;;-140.72;0.00
38197;BME280;26543;51.976;4.616;2023-04-25T09:41:21;52640.44;;;-140.72;0.00
38197;BME280;26543;51.976;4.616;2023-04-25T09:43:47;52638.41;;;-140.72;0.00
38197;BME280;26543;51.976;4.616;2023-04-25T09:46:14;52743.94;;;-140.72;0.00
38197;BME280;26543;51.976;4.616;2023-04-25T09:48:39;52776.41;;;-140.72;0.00
38197;BME280;26543;51.976;4.616;2023-04-25T09:51:08;52668.84;;;-140.72;0.00
38197;BME280;26543;51.976;4.616;2023-04-25T09:53:34;52731.75;;;-140.72;0.00
38197;BME280;26543;51.976;4.616;2023-04-25T09:56:00;52638.41;;;-140.72;0.00
38197;BME280;26543;51.976;4.616;2023-04-25T09:58:29;52622.19;;;-140.72;0.00
38197;BME280;26543;51.976;4.616;2023-04-25T10:00:54;52553.19;;;-140.72;0.00
38197;BME280;26543;51.976;4.616;2023-04-25T10:03:21;52565.38;;;-140.72;0.00
38197;BME280;26543;51.976;4.616;2023-04-25T10:05:50;52528.84;;;-140.72;0.00
38197;BME280;26543;51.976;4.616;2023-04-25T10:08:17;52492.31;;;-140.72;0.00
38197;BME280;26543;51.976;4.616;2023-04-25T10:10:42;52622.19;;;-140.72;0.00
38197;BME280;26543;51.976;4.616;2023-04-25T10:13:08;52660.75;;;-140.72;0.00
38197;BME280;26543;51.976;4.616;2023-04-25T10:15:36;52745.97;;;-140.72;0.00
38197;BME280;26543;51.976;4.616;2023-04-25T10:18:02;52817.00;;;-140.72;0.00
38197;BME280;26543;51.976;4.616;2023-04-25T10:20:28;52833.22;;;-140.72;0.00
38197;BME280;26543;51.976;4.616;2023-04-25T10:22:54;52841.34;;;-140.72;0.00
38197;BME280;26543;51.976;4.616;2023-04-25T10:25:21;52849.47;;;-140.72;0.00
38197;BME280;26543;51.976;4.616;2023-04-25T10:27:47;52829.19;;;-140.72;0.00
38197;BME280;26543;51.976;4.616;2023-04-25T10:30:15;52674.94;;;-140.72;0.00
38197;BME280;26543;51.976;4.616;2023-04-25T10:32:43;52569.44;;;-140.72;0.00
38197;BME280;26543;51.976;4.616;2023-04-25T10:35:10;52595.81;;;-140.72;0.00
38197;BME280;26543;51.976;4.616;2023-04-25T10:37:36;52711.47;;;-140.72;0.00
38197;BME280;26543;51.976;4.616;2023-04-25T10:40:08;52778.44;;;-140.72;0.00
38197;BME280;26543;51.976;4.616;2023-04-25T10:42:33;52786.56;;;-140.72;0.00
38197;BME280;26543;51.976;4.616;2023-04-25T10:45:02;52792.66;;;-140.72;0.00
38197;BME280;26543;51.976;4.616;2023-04-25T10:47:35;52719.59;;;-140.72;0.00
38197;BME280;26543;51.976;4.616;2023-04-25T10:50:05;52672.91;;;-140.72;0.00
38197;BME280;26543;51.976;4.616;2023-04-25T10:52:32;52697.28;;;-140.72;0.00
38197;BME280;26543;51.976;4.616;2023-04-25T10:54:57;52620.16;;;-140.72;0.00
38197;BME280;26543;51.976;4.616;2023-04-25T10:57:30;52636.38;;;-140.72;0.00
38197;BME280;26543;51.976;4.616;2023-04-25T10:59:59;52640.44;;;-140.72;0.00
38197;BME280;26543;51.976;4.616;2023-04-25T11:02:27;52660.75;;;-140.72;0.00
38197;BME280;26543;51.976;4.616;2023-04-25T11:04:56;52644.50;;;-140.72;0.00
38197;BME280;26543;51.976;4.616;2023-04-25T11:09:55;52504.50;;;-140.72;0.00
38197;BME280;26543;51.976;4.616;2023-04-25T11:12:21;52449.72;;;-140.72;0.00
38197;BME280;26543;51.976;4.616;2023-04-25T11:14:46;52398.97;;;-140.72;0.00
38197;BME280;26543;51.976;4.616;2023-04-25T11:17:11;52449.72;;;-140.72;0.00
38197;BME280;26543;51.976;4.616;2023-04-25T11:19:36;52484.19;;;-140.72;0.00
38197;BME280;26543;51.976;4.616;2023-04-25T11:22:02;52392.88;;;-140.72;0.00
38197;BME280;26543;51.976;4.616;2023-04-25T11:24:34;52366.50;;;-140.72;0.00
38197;BME280;26543;51.976;4.616;2023-04-25T11:27:00;52488.25;;;-140.72;0.00
38197;BME280;26543;51.976;4.616;2023-04-25T11:29:27;52512.59;;;-140.72;0.00
38197;BME280;26543;51.976;4.616;2023-04-25T11:31:52;52470.00;;;-140.72;0.00
38197;BME280;26543;51.976;4.616;2023-04-25T11:34:18;52555.22;;;-140.72;0.00
38197;BME280;26543;51.976;4.616;2023-04-25T11:36:44;52494.34;;;-140.72;0.00
38197;BME280;26543;51.976;4.616;2023-04-25T11:39:10;52451.72;;;-140.72;0.00
38197;BME280;26543;51.976;4.616;2023-04-25T11:41:36;52603.94;;;-140.72;0.00
38197;BME280;26543;51.976;4.616;2023-04-25T11:44:02;52415.22;;;-140.72;0.00
38197;BME280;26543;51.976;4.616;2023-04-25T11:46:27;52437.53;;;-140.72;0.00
38197;BME280;26543;51.976;4.616;2023-04-25T11:48:53;52374.63;;;-140.72;0.00
38197;BME280;26543;51.976;4.616;2023-04-25T11:51:20;52344.19;;;-140.72;0.00
38197;BME280;26543;51.976;4.616;2023-04-25T11:53:46;52275.19;;;-140.72;0.00
38197;BME280;26543;51.976;4.616;2023-04-25T11:56:11;52437.53;;;-140.72;0.00
38197;BME280;26543;51.976;4.616;2023-04-25T11:58:56;52561.31;;;-140.72;0.00
38197;BME280;26543;51.976;4.616;2023-04-25T12:01:25;52638.41;;;-140.72;0.00
38197;BME280;26543;51.976;4.616;2023-04-25T12:03:50;52512.59;;;-140.72;0.00
38197;BME280;26543;51.976;4.616;2023-04-25T12:06:16;52439.56;;;-140.72;0.00
38197;BME280;26543;51.976;4.616;2023-04-25T12:08:58;52330.00;;;-140.72;0.00
38197;BME280;26543;51.976;4.616;2023-04-25T12:11:23;52307.66;;;-140.72;0.00
38197;BME280;26543;51.976;4.616;2023-04-25T12:13:51;52277.22;;;-140.72;0.00
38197;BME280;26543;51.976;4.616;2023-04-25T12:16:17;52271.16;;;-140.72;0.00
38197;BME280;26543;51.976;4.616;2023-04-25T12:18:42;52303.59;;;-140.72;0.00
38197;BME280;26543;51.976;4.616;2023-04-25T12:21:07;52327.97;;;-140.72;0.00
38197;BME280;26543;51.976;4.616;2023-04-25T12:23:34;52474.06;;;-140.72;0.00
38197;BME280;26543;51.976;4.616;2023-04-25T12:26:03;52551.16;;;-140.72;0.00
38197;BME280;26543;51.976;4.616;2023-04-25T12:28:28;52591.75;;;-140.72;0.00
38197;BME280;26543;51.976;4.616;2023-04-25T12:31:05;52630.31;;;-140.72;0.00
38197;BME280;26543;51.976;4.616;2023-04-25T12:33:31;52573.50;;;-140.72;0.00
38197;BME280;26543;51.976;4.616;2023-04-25T12:35:57;52593.78;;;-140.72;0.00
38197;BME280;26543;51.976;4.616;2023-04-25T12:38:30;52628.28;;;-140.72;0.00
38197;BME280;26543;51.976;4.616;2023-04-25T12:40:56;52470.00;;;-140.72;0.00